Time;durP1;ratioP1;P1;durP2;ratioP2;P2;SDS_P1;SDS_P2;PMS_P1;PMS_P2;Temp;Humidity;BMP_temperature;BMP_pressure;BME280_temperature;BME280_humidity;BME280_pressure;Samples;Min_cycle;Max_cycle;Signal;HPM_P1;HPM_P2
2022/10/08 00:01:36;;;;;;;13.27;4.30;;;;;;;;;;5033074;28;20417;-88
2022/10/08 00:04:02;;;;;;;12.32;3.70;;;;;;;;;;5009506;28;20439;-80
2022/10/08 00:06:30;;;;;;;13.05;4.20;;;;;;;;;;5033612;28;20428;-80
2022/10/08 00:09:01;;;;;;;14.40;4.20;;;;;;;;;;5033411;28;20439;-81
2022/10/08 00:11:31;;;;;;;11.00;4.30;;;;;;;;;;5032586;28;20427;-81
2022/10/08 00:13:57;;;;;;;15.15;4.35;;;;;;;;;;5033403;28;20425;-80
2022/10/08 00:16:41;;;;;;;11.87;4.27;;;;;;;;;;5033023;28;20576;-80
2022/10/08 00:19:10;;;;;;;14.68;4.47;;;;;;;;;;5015637;28;20434;-81
2022/10/08 00:21:37;;;;;;;14.27;4.90;;;;;;;;;;5033606;28;20440;-79
2022/10/08 00:24:04;;;;;;;15.93;4.45;;;;;;;;;;5028985;28;20438;-84
2022/10/08 00:26:31;;;;;;;14.63;4.30;;;;;;;;;;5027403;28;20418;-84
2022/10/08 00:28:58;;;;;;;12.90;3.97;;;;;;;;;;5033148;28;20448;-84
2022/10/08 00:31:26;;;;;;;14.27;4.10;;;;;;;;;;5021367;28;20452;-79
2022/10/08 00:33:56;;;;;;;13.48;4.15;;;;;;;;;;5032780;28;20469;-79
2022/10/08 00:36:23;;;;;;;12.63;4.13;;;;;;;;;;5033891;28;20429;-83
2022/10/08 00:38:53;;;;;;;10.80;3.85;;;;;;;;;;5030944;28;20438;-84
2022/10/08 00:41:21;;;;;;;11.48;3.67;;;;;;;;;;5030061;28;20423;-84
2022/10/08 00:43:49;;;;;;;12.87;3.73;;;;;;;;;;5032772;28;20232;-80
2022/10/08 00:46:24;;;;;;;11.52;3.88;;;;;;;;;;5033113;28;20453;-81
2022/10/08 00:48:54;;;;;;;12.93;3.90;;;;;;;;;;5029272;28;20432;-80
2022/10/08 00:51:20;;;;;;;11.60;3.83;;;;;;;;;;5032845;28;20412;-80
2022/10/08 00:53:46;;;;;;;14.30;4.18;;;;;;;;;;5013207;28;20510;-80
2022/10/08 00:56:12;;;;;;;11.18;4.10;;;;;;;;;;5025431;28;20532;-80
2022/10/08 00:58:40;;;;;;;16.90;3.80;;;;;;;;;;5033191;28;20520;-80
2022/10/08 01:01:06;;;;;;;11.85;3.97;;;;;;;;;;5030668;28;20445;-80
2022/10/08 01:03:31;;;;;;;11.98;4.13;;;;;;;;;;5009996;28;20439;-80
2022/10/08 01:06:07;;;;;;;14.17;3.93;;;;;;;;;;5033226;28;20444;-80
2022/10/08 01:08:43;;;;;;;16.48;4.40;;;;;;;;;;5031910;28;20417;-80
2022/10/08 01:11:15;;;;;;;16.30;4.17;;;;;;;;;;5030343;28;20183;-84
2022/10/08 01:13:48;;;;;;;13.83;3.77;;;;;;;;;;5037981;23;20229;-84
2022/10/08 01:16:30;;;;;;;9.63;4.00;;;;;;;;;;5032418;28;20188;-84
2022/10/08 01:18:57;;;;;;;13.15;4.65;;;;;;;;;;5016483;28;20426;-84
2022/10/08 01:21:38;;;;;;;17.00;4.60;;;;;;;;;;5034086;28;20183;-84
2022/10/08 01:24:07;;;;;;;18.33;4.67;;;;;;;;;;5025108;28;20204;-84
2022/10/08 01:26:52;;;;;;;13.27;4.37;;;;;;;;;;5027126;28;20195;-80
2022/10/08 01:29:28;;;;;;;16.90;4.30;;;;;;;;;;5029939;28;20264;-80
2022/10/08 01:32:03;;;;;;;14.27;4.20;;;;;;;;;;5024537;28;20239;-80
2022/10/08 01:34:35;;;;;;;14.23;4.40;;;;;;;;;;5026963;28;20492;-80
2022/10/08 01:37:03;;;;;;;14.52;5.38;;;;;;;;;;5030622;28;20433;-80
2022/10/08 01:39:31;;;;;;;10.37;4.20;;;;;;;;;;5034349;28;20177;-80
2022/10/08 01:41:59;;;;;;;14.57;4.80;;;;;;;;;;5023294;28;20176;-80
2022/10/08 01:44:25;;;;;;;14.27;4.90;;;;;;;;;;5025056;28;20189;-79
2022/10/08 01:46:52;;;;;;;14.15;5.00;;;;;;;;;;5031544;28;20504;-78
2022/10/08 01:49:21;;;;;;;13.85;5.35;;;;;;;;;;5028652;28;20430;-78
2022/10/08 01:51:56;;;;;;;14.83;5.20;;;;;;;;;;5020570;28;20420;-78
2022/10/08 01:54:24;;;;;;;14.33;4.97;;;;;;;;;;5032609;28;20493;-79
2022/10/08 01:56:52;;;;;;;14.05;5.25;;;;;;;;;;5031452;28;20433;-78
2022/10/08 01:59:21;;;;;;;17.63;5.40;;;;;;;;;;5029707;28;20427;-85
2022/10/08 02:01:59;;;;;;;10.13;4.90;;;;;;;;;;5018312;28;20431;-78
2022/10/08 02:04:32;;;;;;;12.55;4.82;;;;;;;;;;5017698;28;20469;-78
2022/10/08 02:07:04;;;;;;;11.73;5.00;;;;;;;;;;5026116;28;20429;-79
2022/10/08 02:09:31;;;;;;;11.77;4.95;;;;;;;;;;5025256;28;20419;-78
2022/10/08 02:11:58;;;;;;;16.08;6.72;;;;;;;;;;5017631;28;20446;-78
2022/10/08 02:14:26;;;;;;;15.37;6.47;;;;;;;;;;5027400;28;20248;-78
2022/10/08 02:16:56;;;;;;;15.60;8.10;;;;;;;;;;5032250;28;20184;-84
2022/10/08 02:19:32;;;;;;;17.27;8.80;;;;;;;;;;5028498;28;20223;-85
2022/10/08 02:21:59;;;;;;;14.77;8.80;;;;;;;;;;5021705;28;20226;-84
2022/10/08 02:24:33;;;;;;;20.03;9.40;;;;;;;;;;5021186;28;20189;-85
2022/10/08 02:27:02;;;;;;;17.80;11.57;;;;;;;;;;5027360;28;20181;-85
2022/10/08 02:29:32;;;;;;;21.60;13.40;;;;;;;;;;5027505;28;20189;-84
2022/10/08 02:32:06;;;;;;;24.07;14.37;;;;;;;;;;5032018;28;20193;-85
2022/10/08 02:34:36;;;;;;;22.47;14.13;;;;;;;;;;5030463;28;20184;-78
2022/10/08 02:37:11;;;;;;;20.57;15.90;;;;;;;;;;5020172;28;20207;-79
2022/10/08 02:39:39;;;;;;;25.77;15.07;;;;;;;;;;5023113;28;20192;-78
2022/10/08 02:42:07;;;;;;;23.53;15.57;;;;;;;;;;5030444;28;20186;-79
2022/10/08 02:44:39;;;;;;;27.13;15.37;;;;;;;;;;5018684;28;20276;-79
2022/10/08 02:47:07;;;;;;;25.73;15.57;;;;;;;;;;5014253;28;20181;-78
2022/10/08 02:49:36;;;;;;;27.63;14.60;;;;;;;;;;5032772;28;20275;-78
2022/10/08 02:52:04;;;;;;;24.67;14.70;;;;;;;;;;5032294;28;20230;-78
2022/10/08 02:54:33;;;;;;;26.50;15.00;;;;;;;;;;5017693;28;20177;-78
2022/10/08 02:57:26;;;;;;;25.87;15.67;;;;;;;;;;5032727;28;20176;-78
2022/10/08 02:59:52;;;;;;;26.53;14.83;;;;;;;;;;5030862;28;20185;-78
2022/10/08 03:02:26;;;;;;;21.00;13.93;;;;;;;;;;5033707;28;20211;-79
2022/10/08 03:05:01;;;;;;;27.57;14.47;;;;;;;;;;5014731;28;20197;-78
2022/10/08 03:07:29;;;;;;;26.90;14.13;;;;;;;;;;5013049;28;20173;-85
2022/10/08 03:09:56;;;;;;;28.47;13.20;;;;;;;;;;5028634;28;20180;-85
2022/10/08 03:12:22;;;;;;;22.07;13.60;;;;;;;;;;5030969;28;20200;-84
2022/10/08 03:14:49;;;;;;;22.53;13.50;;;;;;;;;;5032532;28;20252;-85
2022/10/08 03:17:18;;;;;;;24.93;14.03;;;;;;;;;;5032455;28;20193;-85
2022/10/08 03:19:44;;;;;;;22.50;14.03;;;;;;;;;;5032461;28;20184;-86
2022/10/08 03:22:10;;;;;;;23.83;13.90;;;;;;;;;;5032762;28;20173;-85
2022/10/08 03:24:36;;;;;;;21.40;13.27;;;;;;;;;;5032856;28;20176;-88
2022/10/08 03:27:03;;;;;;;23.07;13.30;;;;;;;;;;5012522;28;20207;-87
2022/10/08 03:29:29;;;;;;;19.87;11.40;;;;;;;;;;5017959;28;20293;-88
2022/10/08 03:31:55;;;;;;;16.60;10.57;;;;;;;;;;5026324;28;20184;-88
2022/10/08 03:34:21;;;;;;;17.97;10.10;;;;;;;;;;5012947;28;20189;-88
2022/10/08 03:36:48;;;;;;;15.07;9.30;;;;;;;;;;5017374;28;20252;-88
2022/10/08 03:39:14;;;;;;;17.97;9.67;;;;;;;;;;5036329;28;20185;-88
2022/10/08 03:41:40;;;;;;;16.80;8.90;;;;;;;;;;5019334;28;20192;-79
2022/10/08 03:44:11;;;;;;;14.33;8.53;;;;;;;;;;5035681;28;20201;-79
2022/10/08 03:46:37;;;;;;;15.73;8.47;;;;;;;;;;5037453;28;20169;-79
2022/10/08 03:49:03;;;;;;;19.07;9.10;;;;;;;;;;5036062;28;20250;-79
2022/10/08 03:51:29;;;;;;;15.03;8.97;;;;;;;;;;5035661;28;20199;-79
2022/10/08 03:53:55;;;;;;;18.87;9.67;;;;;;;;;;5010112;28;20219;-80
2022/10/08 03:56:25;;;;;;;18.57;9.97;;;;;;;;;;5019752;28;20243;-85
2022/10/08 03:58:55;;;;;;;18.27;9.63;;;;;;;;;;5019453;28;20200;-85
2022/10/08 04:01:21;;;;;;;19.07;9.83;;;;;;;;;;5034809;28;20203;-85
2022/10/08 04:03:47;;;;;;;16.70;9.63;;;;;;;;;;5035857;28;20224;-85
2022/10/08 04:06:14;;;;;;;20.07;8.97;;;;;;;;;;5037020;28;20219;-85
2022/10/08 04:08:40;;;;;;;17.03;8.67;;;;;;;;;;5036614;28;20188;-85
2022/10/08 04:11:07;;;;;;;18.83;9.10;;;;;;;;;;5035536;28;20256;-85
2022/10/08 04:13:34;;;;;;;15.67;9.10;;;;;;;;;;5035226;28;20223;-81
2022/10/08 04:16:01;;;;;;;15.87;8.03;;;;;;;;;;5036469;28;20188;-80
2022/10/08 04:18:27;;;;;;;14.77;8.00;;;;;;;;;;5023509;28;20185;-81
2022/10/08 04:21:00;;;;;;;16.83;8.53;;;;;;;;;;5016854;28;20240;-81
2022/10/08 04:23:26;;;;;;;14.57;7.43;;;;;;;;;;5010225;28;20209;-81
2022/10/08 04:25:52;;;;;;;12.63;7.60;;;;;;;;;;5035139;28;20172;-81
2022/10/08 04:28:19;;;;;;;16.57;7.97;;;;;;;;;;5015727;28;20193;-81
2022/10/08 04:30:58;;;;;;;14.00;8.10;;;;;;;;;;5028126;28;20181;-79
2022/10/08 04:33:24;;;;;;;18.10;8.50;;;;;;;;;;5051592;28;20192;-79
2022/10/08 04:35:50;;;;;;;14.23;8.73;;;;;;;;;;5015761;28;20217;-79
2022/10/08 04:38:16;;;;;;;17.63;8.57;;;;;;;;;;5035043;28;20181;-79
2022/10/08 04:40:42;;;;;;;15.17;8.90;;;;;;;;;;5029781;28;20239;-79
2022/10/08 04:43:08;;;;;;;17.97;8.73;;;;;;;;;;5034702;28;20223;-79
2022/10/08 04:45:34;;;;;;;14.97;9.07;;;;;;;;;;5035946;28;20177;-79
2022/10/08 04:48:00;;;;;;;13.90;8.77;;;;;;;;;;5015042;28;20185;-81
2022/10/08 04:50:26;;;;;;;17.10;10.17;;;;;;;;;;4999352;28;20212;-81
2022/10/08 04:52:52;;;;;;;17.67;9.43;;;;;;;;;;5022014;28;20223;-81
2022/10/08 04:55:18;;;;;;;19.10;9.87;;;;;;;;;;5015599;28;20272;-81
2022/10/08 04:57:44;;;;;;;19.57;10.40;;;;;;;;;;5034588;28;20303;-81
2022/10/08 05:00:10;;;;;;;15.20;9.83;;;;;;;;;;5033399;28;20238;-79
2022/10/08 05:02:36;;;;;;;16.47;9.77;;;;;;;;;;5018301;28;20296;-79
2022/10/08 05:05:02;;;;;;;16.17;10.40;;;;;;;;;;5018323;28;20204;-80
2022/10/08 05:07:28;;;;;;;15.17;10.50;;;;;;;;;;5010160;28;20193;-80
2022/10/08 05:09:54;;;;;;;18.63;10.47;;;;;;;;;;5028588;28;20193;-81
2022/10/08 05:12:20;;;;;;;16.13;10.07;;;;;;;;;;5034133;28;20185;-81
2022/10/08 05:14:46;;;;;;;20.43;10.93;;;;;;;;;;5031266;28;20228;-81
2022/10/08 05:17:12;;;;;;;20.77;11.70;;;;;;;;;;5017663;28;20319;-81
2022/10/08 05:19:38;;;;;;;18.17;10.87;;;;;;;;;;5017412;28;20180;-84
2022/10/08 05:22:04;;;;;;;21.03;12.33;;;;;;;;;;5016528;28;20314;-84
2022/10/08 05:24:31;;;;;;;19.83;11.50;;;;;;;;;;5017056;28;20193;-84
2022/10/08 05:26:57;;;;;;;17.40;11.93;;;;;;;;;;5031299;28;20209;-84
2022/10/08 05:29:23;;;;;;;18.70;12.60;;;;;;;;;;5030965;28;20204;-85
2022/10/08 05:31:52;;;;;;;19.03;12.27;;;;;;;;;;5034415;28;20266;-85
2022/10/08 05:34:21;;;;;;;20.37;12.30;;;;;;;;;;5015158;28;20212;-85
2022/10/08 05:36:47;;;;;;;23.20;13.17;;;;;;;;;;5016056;28;20242;-81
2022/10/08 05:39:13;;;;;;;19.07;13.53;;;;;;;;;;5011177;28;20189;-81
2022/10/08 05:41:40;;;;;;;17.13;12.97;;;;;;;;;;5013278;28;20188;-81
2022/10/08 05:44:06;;;;;;;20.70;13.33;;;;;;;;;;5032751;28;20258;-87
2022/10/08 05:46:33;;;;;;;21.17;13.80;;;;;;;;;;5030937;28;20177;-88
2022/10/08 05:49:00;;;;;;;18.20;14.50;;;;;;;;;;5032818;28;20421;-88
2022/10/08 05:51:26;;;;;;;21.00;13.43;;;;;;;;;;5033445;28;20172;-88
2022/10/08 05:53:53;;;;;;;19.23;13.23;;;;;;;;;;5031145;28;20176;-88
2022/10/08 05:56:21;;;;;;;19.40;12.90;;;;;;;;;;5033357;28;20185;-89
2022/10/08 05:58:47;;;;;;;18.90;12.67;;;;;;;;;;5034164;28;20189;-87
2022/10/08 06:01:21;;;;;;;20.63;12.50;;;;;;;;;;5030256;28;20188;-87
2022/10/08 06:03:57;;;;;;;21.43;12.70;;;;;;;;;;5032629;28;20307;-88
2022/10/08 06:06:24;;;;;;;23.13;12.57;;;;;;;;;;5033174;28;20169;-87
2022/10/08 06:08:54;;;;;;;19.03;13.40;;;;;;;;;;5032943;28;20252;-87
2022/10/08 06:11:20;;;;;;;22.13;12.43;;;;;;;;;;5033360;28;20173;-88
2022/10/08 06:13:53;;;;;;;21.03;12.70;;;;;;;;;;5033013;28;20311;-88
2022/10/08 06:16:19;;;;;;;21.23;12.33;;;;;;;;;;5029921;28;20212;-87
2022/10/08 06:18:45;;;;;;;19.03;13.40;;;;;;;;;;5031642;28;20188;-88
2022/10/08 06:21:16;;;;;;;20.97;12.80;;;;;;;;;;5034192;28;20180;-88
2022/10/08 06:23:46;;;;;;;22.73;12.77;;;;;;;;;;5022751;28;20215;-87
2022/10/08 06:26:12;;;;;;;19.43;12.83;;;;;;;;;;5021445;28;20211;-83
2022/10/08 06:28:39;;;;;;;21.03;13.30;;;;;;;;;;5029080;28;20188;-81
2022/10/08 06:31:06;;;;;;;19.50;12.67;;;;;;;;;;5016207;28;20268;-81
2022/10/08 06:33:32;;;;;;;19.77;13.27;;;;;;;;;;5032893;28;20184;-81
2022/10/08 06:36:04;;;;;;;18.33;12.57;;;;;;;;;;5021539;28;20212;-81
2022/10/08 06:38:30;;;;;;;20.67;13.10;;;;;;;;;;5013351;28;20185;-81
2022/10/08 06:40:57;;;;;;;20.07;12.73;;;;;;;;;;5026317;28;20186;-81
2022/10/08 06:43:23;;;;;;;18.23;13.50;;;;;;;;;;5032856;28;20231;-80
2022/10/08 06:45:49;;;;;;;17.03;12.30;;;;;;;;;;5013596;28;20208;-79
2022/10/08 06:48:15;;;;;;;19.20;13.17;;;;;;;;;;5024274;28;20185;-80
2022/10/08 06:50:41;;;;;;;20.77;13.57;;;;;;;;;;5025280;28;20184;-79
2022/10/08 06:53:08;;;;;;;19.73;12.63;;;;;;;;;;5016342;28;20259;-79
2022/10/08 06:55:35;;;;;;;20.83;13.47;;;;;;;;;;5016373;28;20180;-80
2022/10/08 06:58:01;;;;;;;18.23;12.47;;;;;;;;;;5015776;28;20181;-80
2022/10/08 07:00:28;;;;;;;19.43;12.33;;;;;;;;;;5016335;28;20184;-81
2022/10/08 07:02:54;;;;;;;16.70;12.40;;;;;;;;;;5032227;28;20290;-81
2022/10/08 07:05:20;;;;;;;17.53;11.93;;;;;;;;;;5033680;28;20217;-81
2022/10/08 07:07:46;;;;;;;18.63;12.27;;;;;;;;;;5032585;28;20190;-81
2022/10/08 07:10:12;;;;;;;19.90;13.17;;;;;;;;;;5033279;28;20203;-81
2022/10/08 07:12:38;;;;;;;16.80;11.30;;;;;;;;;;5036602;28;20184;-81
2022/10/08 07:15:04;;;;;;;17.87;12.27;;;;;;;;;;5020248;28;20251;-81
2022/10/08 07:17:30;;;;;;;20.20;12.33;;;;;;;;;;5036892;28;20229;-81
2022/10/08 07:19:56;;;;;;;16.93;11.93;;;;;;;;;;5036515;28;20283;-81
2022/10/08 07:22:23;;;;;;;19.13;11.90;;;;;;;;;;5036474;28;20192;-81
2022/10/08 07:24:49;;;;;;;15.23;10.10;;;;;;;;;;5036493;28;20177;-81
2022/10/08 07:27:16;;;;;;;17.93;10.87;;;;;;;;;;5036378;28;20176;-81
2022/10/08 07:29:42;;;;;;;13.93;10.07;;;;;;;;;;5037424;28;20177;-81
2022/10/08 07:32:08;;;;;;;14.37;10.17;;;;;;;;;;5020062;28;20182;-81
2022/10/08 07:34:34;;;;;;;16.93;9.93;;;;;;;;;;5032846;28;20189;-80
2022/10/08 07:37:00;;;;;;;14.47;10.00;;;;;;;;;;5036246;28;20192;-79
2022/10/08 07:39:26;;;;;;;11.90;9.50;;;;;;;;;;5035942;28;20188;-80
2022/10/08 07:41:52;;;;;;;14.37;8.63;;;;;;;;;;5036085;28;20179;-79
2022/10/08 07:44:18;;;;;;;17.20;8.97;;;;;;;;;;5035751;28;20204;-79
2022/10/08 07:46:45;;;;;;;17.58;9.13;;;;;;;;;;5035378;28;20436;-80
2022/10/08 07:49:12;;;;;;;18.50;8.53;;;;;;;;;;5037079;28;20271;-79
2022/10/08 07:51:38;;;;;;;15.90;8.23;;;;;;;;;;5036613;28;20344;-81
2022/10/08 07:54:07;;;;;;;20.53;8.13;;;;;;;;;;5019429;28;20347;-81
2022/10/08 07:56:33;;;;;;;12.73;6.87;;;;;;;;;;5036450;28;20177;-81
2022/10/08 07:59:00;;;;;;;10.93;6.50;;;;;;;;;;5018963;28;20235;-81
2022/10/08 08:01:28;;;;;;;11.53;6.63;;;;;;;;;;5035768;28;20180;-81
2022/10/08 08:04:01;;;;;;;12.33;5.60;;;;;;;;;;5036514;28;20196;-81
2022/10/08 08:06:27;;;;;;;12.50;6.03;;;;;;;;;;5035446;28;20180;-85
2022/10/08 08:08:54;;;;;;;9.80;5.47;;;;;;;;;;5035404;28;20184;-83
2022/10/08 08:11:21;;;;;;;15.57;4.90;;;;;;;;;;5035374;28;20236;-86
2022/10/08 08:13:47;;;;;;;12.30;3.93;;;;;;;;;;5035216;28;20224;-85
2022/10/08 08:16:15;;;;;;;9.02;3.95;;;;;;;;;;5033992;28;20413;-86
2022/10/08 08:18:42;;;;;;;11.03;3.90;;;;;;;;;;5035258;28;20208;-85
2022/10/08 08:21:12;;;;;;;8.47;3.27;;;;;;;;;;5035754;28;20259;-85
2022/10/08 08:23:39;;;;;;;6.40;2.43;;;;;;;;;;5036035;28;20216;-81
2022/10/08 08:26:10;;;;;;;8.77;2.70;;;;;;;;;;5036235;28;20187;-81
2022/10/08 08:28:36;;;;;;;7.83;2.90;;;;;;;;;;5035085;28;20242;-81
2022/10/08 08:31:13;;;;;;;6.23;2.40;;;;;;;;;;5036015;28;20256;-81
2022/10/08 08:33:39;;;;;;;7.70;2.10;;;;;;;;;;5034691;28;20188;-81
2022/10/08 08:36:06;;;;;;;6.83;2.27;;;;;;;;;;5034938;28;20191;-81
2022/10/08 08:38:41;;;;;;;7.37;2.17;;;;;;;;;;5015706;28;20193;-81
2022/10/08 08:41:16;;;;;;;8.40;2.30;;;;;;;;;;5032790;28;20198;-81
2022/10/08 08:43:42;;;;;;;6.10;1.90;;;;;;;;;;5034088;28;20206;-81
2022/10/08 08:46:11;;;;;;;7.33;1.97;;;;;;;;;;5017690;28;20184;-82
2022/10/08 08:48:38;;;;;;;5.20;1.90;;;;;;;;;;5033984;28;20168;-82
2022/10/08 08:51:04;;;;;;;7.10;2.00;;;;;;;;;;5017798;28;20250;-81
2022/10/08 08:53:30;;;;;;;8.00;2.07;;;;;;;;;;5018155;28;20185;-82
2022/10/08 08:55:58;;;;;;;7.60;2.07;;;;;;;;;;5035300;28;20199;-82
2022/10/08 08:58:24;;;;;;;6.82;2.28;;;;;;;;;;5033973;28;20416;-89
2022/10/08 09:00:59;;;;;;;5.97;1.80;;;;;;;;;;5035628;28;20181;-89
2022/10/08 09:03:40;;;;;;;6.50;2.07;;;;;;;;;;5036244;28;20204;-90
2022/10/08 09:06:13;;;;;;;5.27;1.90;;;;;;;;;;5034910;28;20215;-90
2022/10/08 09:08:43;;;;;;;7.63;1.90;;;;;;;;;;5036011;28;20176;-90
2022/10/08 09:11:12;;;;;;;6.87;1.63;;;;;;;;;;5036069;28;20176;-90
2022/10/08 09:13:45;;;;;;;7.70;2.00;;;;;;;;;;5033636;28;20770;-82
2022/10/08 09:16:12;;;;;;;5.10;1.60;;;;;;;;;;5034322;28;20180;-82
2022/10/08 09:18:38;;;;;;;6.50;1.92;;;;;;;;;;5017197;28;20416;-82
2022/10/08 09:21:04;;;;;;;5.73;1.80;;;;;;;;;;5017952;28;20177;-82
2022/10/08 09:23:30;;;;;;;5.63;1.77;;;;;;;;;;5017673;28;20212;-82
2022/10/08 09:26:05;;;;;;;4.57;1.70;;;;;;;;;;5017518;28;20176;-82
2022/10/08 09:28:50;;;;;;;4.53;1.73;;;;;;;;;;5034120;28;20199;-82
2022/10/08 09:31:35;;;;;;;5.95;1.83;;;;;;;;;;5033140;28;20405;-81
2022/10/08 09:34:04;;;;;;;6.18;1.88;;;;;;;;;;5030490;28;20417;-80
2022/10/08 09:36:32;;;;;;;7.45;2.13;;;;;;;;;;5033408;28;20440;-80
2022/10/08 09:38:59;;;;;;;6.87;1.77;;;;;;;;;;5033618;28;20425;-80
2022/10/08 09:41:27;;;;;;;6.72;2.00;;;;;;;;;;5017518;28;20441;-80
2022/10/08 09:44:12;;;;;;;8.15;2.08;;;;;;;;;;5033136;28;20430;-80
2022/10/08 09:46:38;;;;;;;6.13;2.00;;;;;;;;;;5032674;28;20401;-89
2022/10/08 09:49:25;;;;;;;6.32;2.00;;;;;;;;;;5016491;28;20417;-88
2022/10/08 09:51:51;;;;;;;9.00;2.15;;;;;;;;;;5026753;28;20410;-90
2022/10/08 09:54:20;;;;;;;6.15;2.05;;;;;;;;;;5028657;28;20456;-88
2022/10/08 09:56:51;;;;;;;8.70;2.17;;;;;;;;;;5030406;28;20424;-88
2022/10/08 09:59:20;;;;;;;7.65;1.95;;;;;;;;;;5032882;28;20405;-88
2022/10/08 10:01:47;;;;;;;7.43;2.03;;;;;;;;;;5032197;28;20432;-88
2022/10/08 10:04:21;;;;;;;7.30;1.90;;;;;;;;;;5033820;28;20430;-89
2022/10/08 10:06:52;;;;;;;7.32;2.00;;;;;;;;;;5032937;28;20409;-88
2022/10/08 10:09:18;;;;;;;7.13;1.83;;;;;;;;;;5032804;28;20410;-89
2022/10/08 10:11:46;;;;;;;4.65;1.63;;;;;;;;;;5032604;28;20450;-87
2022/10/08 10:14:25;;;;;;;4.28;1.80;;;;;;;;;;5031370;28;20521;-89
2022/10/08 10:16:58;;;;;;;4.07;1.63;;;;;;;;;;5027951;28;20425;-89
2022/10/08 10:19:27;;;;;;;4.78;1.58;;;;;;;;;;5029263;28;20420;-90
2022/10/08 10:22:00;;;;;;;3.83;1.67;;;;;;;;;;5032154;28;20417;-85
2022/10/08 10:24:35;;;;;;;4.85;1.40;;;;;;;;;;5029547;28;20437;-85
2022/10/08 10:27:06;;;;;;;4.30;1.60;;;;;;;;;;5031493;28;20444;-86
2022/10/08 10:29:37;;;;;;;5.55;1.60;;;;;;;;;;5029699;28;20509;-86
2022/10/08 10:32:11;;;;;;;5.05;1.70;;;;;;;;;;5031533;28;20484;-86
2022/10/08 10:34:38;;;;;;;5.10;1.70;;;;;;;;;;5029701;28;20416;-86
2022/10/08 10:37:10;;;;;;;5.97;1.98;;;;;;;;;;5031352;28;20472;-89
2022/10/08 10:39:49;;;;;;;6.70;1.90;;;;;;;;;;5031647;28;20410;-89
2022/10/08 10:42:15;;;;;;;5.20;1.90;;;;;;;;;;5028704;28;20468;-89
2022/10/08 10:44:50;;;;;;;5.88;1.80;;;;;;;;;;5031259;28;20472;-89
2022/10/08 10:47:18;;;;;;;5.70;1.83;;;;;;;;;;5031419;28;20393;-88
2022/10/08 10:49:44;;;;;;;6.93;1.98;;;;;;;;;;5031428;28;20456;-89
2022/10/08 10:52:38;;;;;;;7.28;1.90;;;;;;;;;;5028641;28;20578;-89
2022/10/08 10:55:07;;;;;;;5.57;1.90;;;;;;;;;;5030375;28;20414;-86
2022/10/08 10:57:43;;;;;;;7.60;2.20;;;;;;;;;;5031125;28;20469;-85
2022/10/08 11:00:16;;;;;;;5.68;1.90;;;;;;;;;;5030341;28;20535;-85
2022/10/08 11:03:14;;;;;;;6.45;1.77;;;;;;;;;;5031832;28;20517;-86
2022/10/08 11:05:41;;;;;;;5.22;1.70;;;;;;;;;;5008542;28;20424;-86
2022/10/08 11:08:07;;;;;;;5.85;1.80;;;;;;;;;;5030739;28;20492;-89
2022/10/08 11:10:33;;;;;;;4.43;1.60;;;;;;;;;;5031761;28;20490;-80
2022/10/08 11:13:11;;;;;;;4.97;1.77;;;;;;;;;;5031178;28;20440;-80
2022/10/08 11:16:06;;;;;;;5.73;2.03;;;;;;;;;;5030932;28;20434;-80
2022/10/08 11:18:38;;;;;;;5.35;1.90;;;;;;;;;;4990410;28;20423;-80
2022/10/08 11:21:23;;;;;;;6.75;1.92;;;;;;;;;;5021063;28;20433;-80
2022/10/08 11:24:01;;;;;;;5.03;1.90;;;;;;;;;;5028307;28;20434;-80
2022/10/08 11:26:46;;;;;;;5.15;1.67;;;;;;;;;;5031735;28;20410;-86
2022/10/08 11:29:15;;;;;;;8.32;2.20;;;;;;;;;;5030446;28;20497;-86
2022/10/08 11:31:42;;;;;;;4.35;1.77;;;;;;;;;;5022024;28;20188;-86
2022/10/08 11:34:28;;;;;;;6.10;1.90;;;;;;;;;;5032123;28;20522;-85
2022/10/08 11:37:00;;;;;;;6.22;2.00;;;;;;;;;;5032228;28;20441;-86
2022/10/08 11:39:35;;;;;;;5.55;1.80;;;;;;;;;;5029518;28;20431;-86
2022/10/08 11:42:13;;;;;;;6.75;2.15;;;;;;;;;;5032645;28;20398;-86
2022/10/08 11:44:39;;;;;;;7.47;2.15;;;;;;;;;;5031814;28;20427;-80
2022/10/08 11:47:24;;;;;;;7.25;2.20;;;;;;;;;;5012537;28;20453;-80
2022/10/08 11:49:53;;;;;;;7.47;1.90;;;;;;;;;;5012058;28;20539;-80
2022/10/08 11:52:19;;;;;;;6.53;2.05;;;;;;;;;;5019351;28;20406;-80
2022/10/08 11:54:49;;;;;;;6.60;2.17;;;;;;;;;;5014904;28;20559;-80
2022/10/08 11:57:35;;;;;;;10.38;2.35;;;;;;;;;;5033688;28;20448;-80
2022/10/08 12:00:01;;;;;;;7.27;1.77;;;;;;;;;;5036555;28;20252;-81
2022/10/08 12:02:29;;;;;;;9.53;2.17;;;;;;;;;;5034433;28;20494;-80
2022/10/08 12:04:58;;;;;;;6.43;2.10;;;;;;;;;;5036360;28;20492;-81
2022/10/08 12:07:27;;;;;;;5.38;1.88;;;;;;;;;;5032019;28;20468;-80
2022/10/08 12:10:01;;;;;;;7.05;2.05;;;;;;;;;;5034558;28;20463;-80
2022/10/08 12:12:45;;;;;;;7.18;2.15;;;;;;;;;;5020798;28;20432;-81
2022/10/08 12:15:23;;;;;;;7.73;2.00;;;;;;;;;;5034085;28;20449;-80
2022/10/08 12:17:53;;;;;;;8.30;2.00;;;;;;;;;;5034822;28;20402;-80
2022/10/08 12:20:21;;;;;;;7.05;1.90;;;;;;;;;;5033000;28;20431;-80
2022/10/08 12:23:05;;;;;;;6.88;2.20;;;;;;;;;;5034355;28;20429;-80
2022/10/08 12:25:36;;;;;;;7.57;1.90;;;;;;;;;;5034068;28;20460;-80
2022/10/08 12:28:18;;;;;;;8.45;2.03;;;;;;;;;;5034691;28;20479;-80
2022/10/08 12:30:50;;;;;;;5.95;1.70;;;;;;;;;;5024300;28;20436;-80
2022/10/08 12:33:16;;;;;;;10.32;2.10;;;;;;;;;;5034609;28;20409;-81
2022/10/08 12:36:01;;;;;;;7.40;2.03;;;;;;;;;;5018246;28;20421;-80
2022/10/08 12:38:49;;;;;;;6.95;1.80;;;;;;;;;;5035090;28;20434;-80
2022/10/08 12:41:29;;;;;;;6.22;1.90;;;;;;;;;;5034691;28;20441;-81
2022/10/08 12:44:02;;;;;;;8.30;2.00;;;;;;;;;;5029068;28;20504;-80
2022/10/08 12:46:41;;;;;;;6.07;1.80;;;;;;;;;;5014641;28;20411;-80
2022/10/08 12:49:13;;;;;;;6.05;2.10;;;;;;;;;;5014735;28;20427;-80
2022/10/08 12:51:42;;;;;;;6.72;2.03;;;;;;;;;;5014740;28;20467;-88
2022/10/08 12:54:17;;;;;;;5.47;1.83;;;;;;;;;;5020997;28;20509;-90
2022/10/08 12:56:43;;;;;;;8.07;2.05;;;;;;;;;;5033922;28;20421;-89
2022/10/08 12:59:10;;;;;;;7.68;2.28;;;;;;;;;;5039887;23;20454;-88
2022/10/08 13:01:36;;;;;;;8.70;2.40;;;;;;;;;;5027138;28;20431;-87
2022/10/08 13:04:08;;;;;;;8.90;2.10;;;;;;;;;;5019961;28;20435;-88
2022/10/08 13:06:34;;;;;;;9.93;2.33;;;;;;;;;;5014152;28;20417;-79
2022/10/08 13:09:01;;;;;;;6.03;1.90;;;;;;;;;;5019752;28;20453;-81
2022/10/08 13:11:27;;;;;;;9.48;2.20;;;;;;;;;;5015659;28;20434;-81
2022/10/08 13:13:53;;;;;;;8.57;2.15;;;;;;;;;;4997984;28;20446;-81
2022/10/08 13:16:19;;;;;;;7.03;1.93;;;;;;;;;;5014253;28;20411;-81
2022/10/08 13:18:51;;;;;;;6.90;1.80;;;;;;;;;;5028222;28;20436;-81
2022/10/08 13:21:33;;;;;;;9.18;2.20;;;;;;;;;;5033844;28;20559;-81
2022/10/08 13:24:11;;;;;;;5.83;1.80;;;;;;;;;;5014672;28;20442;-78
2022/10/08 13:26:44;;;;;;;7.20;1.92;;;;;;;;;;5015430;28;20418;-78
2022/10/08 13:29:17;;;;;;;9.35;2.13;;;;;;;;;;5027794;28;20411;-77
2022/10/08 13:31:43;;;;;;;6.75;1.95;;;;;;;;;;5031840;28;20424;-77
2022/10/08 13:34:15;;;;;;;8.88;2.00;;;;;;;;;;5031680;28;20456;-78
2022/10/08 13:36:46;;;;;;;6.75;1.80;;;;;;;;;;5032780;28;20426;-78
2022/10/08 13:39:22;;;;;;;6.45;1.77;;;;;;;;;;5019366;28;20403;-78
2022/10/08 13:41:49;;;;;;;6.82;1.63;;;;;;;;;;5015815;28;20469;-78
2022/10/08 13:44:16;;;;;;;6.72;1.90;;;;;;;;;;5034327;28;20425;-78
2022/10/08 13:46:41;;;;;;;7.82;2.10;;;;;;;;;;5029359;28;20429;-86
2022/10/08 13:49:37;;;;;;;9.93;2.05;;;;;;;;;;5015932;28;20428;-80
2022/10/08 13:52:03;;;;;;;5.38;1.80;;;;;;;;;;5019043;28;20494;-80
2022/10/08 13:54:33;;;;;;;8.00;1.97;;;;;;;;;;5016101;28;20478;-80
2022/10/08 13:56:59;;;;;;;8.30;2.00;;;;;;;;;;5032380;28;20408;-80
2022/10/08 13:59:25;;;;;;;10.40;2.20;;;;;;;;;;5028186;28;20437;-80
2022/10/08 14:01:51;;;;;;;7.80;1.95;;;;;;;;;;5033656;28;20488;-80
2022/10/08 14:04:17;;;;;;;8.63;2.20;;;;;;;;;;5032878;28;20529;-80
2022/10/08 14:06:47;;;;;;;6.25;2.00;;;;;;;;;;5016984;28;20467;-80
2022/10/08 14:09:16;;;;;;;8.43;2.20;;;;;;;;;;5032105;28;20459;-80
2022/10/08 14:11:42;;;;;;;9.23;2.10;;;;;;;;;;5032758;28;20417;-80
2022/10/08 14:14:14;;;;;;;7.05;2.00;;;;;;;;;;5032097;28;20440;-80
2022/10/08 14:16:43;;;;;;;9.52;1.83;;;;;;;;;;5032785;28;20505;-80
2022/10/08 14:19:10;;;;;;;6.15;2.00;;;;;;;;;;5015887;28;20418;-80
2022/10/08 14:21:36;;;;;;;6.72;2.05;;;;;;;;;;5031670;28;20519;-80
2022/10/08 14:24:03;;;;;;;6.60;2.05;;;;;;;;;;5033510;28;20475;-80
2022/10/08 14:26:29;;;;;;;7.00;2.00;;;;;;;;;;5032453;28;20421;-80
2022/10/08 14:28:56;;;;;;;8.68;2.00;;;;;;;;;;5015578;28;20432;-80
2022/10/08 14:31:22;;;;;;;6.50;2.00;;;;;;;;;;5016210;28;20413;-78
2022/10/08 14:33:48;;;;;;;7.88;2.15;;;;;;;;;;5016697;28;20420;-78
2022/10/08 14:36:15;;;;;;;9.05;2.00;;;;;;;;;;5029699;28;20440;-78
2022/10/08 14:38:41;;;;;;;8.13;2.33;;;;;;;;;;5033588;28;20412;-78
2022/10/08 14:41:08;;;;;;;9.30;1.70;;;;;;;;;;5017692;28;20195;-77
2022/10/08 14:43:34;;;;;;;7.07;1.90;;;;;;;;;;5033326;28;20239;-78
2022/10/08 14:46:00;;;;;;;6.17;1.90;;;;;;;;;;5033337;28;20181;-78